• Join FlightAware (Why Join?)
  • Login
  • US Flag GB Flag 
03:10 EDT


 

Airport Tracker/Info


-or-


 

Live Flight TrackerFlight Track Log ✈ KAP720 ✈ 18-May-2013 ✈ KBOS - KHYA

Flight Track Log - Related Links

Times and Time Zones

All times are in EDT time to prevent confusion due to time zone crossing. See the KAP720 flight status page for this flight to view local times or setup timezone preferences in your user account.

Time Position Orientation Groundspeed Altitude Reporting Facility
EDT Latitude Longitude Course Direction KTS MPH feet Rate Location/Type
18:01 42.3667 -70.9833 132° Southeast 108 124 400  Level KA90
18:02 42.3333 -70.9333 132° Southeast 115 132 1,600 780 Climbing KA90
18:03 42.3167 -70.9000 124° Southeast 117 135 2,300 780 Climbing KA90
18:04 42.3000 -70.8667 124° Southeast 124 143 3,100 600 Climbing KA90
18:05 42.2833 -70.8167 114° Southeast 141 162 3,500 180 Climbing KA90
18:06 42.2500 -70.7833 143° Southeast 148 170 3,500  Level KA90
18:07 42.2167 -70.7500 143° Southeast 148 170 3,500  Level KA90
18:08 42.1833 -70.7333 160° South 148 170 3,500  Level KA90
18:10 42.1480 -70.7081 152° Southeast  Level FlightAware Approximate
18:17 41.9484 -70.4953 139° Southeast  Level FlightAware Approximate
18:18 41.9210 -70.4633 139° Southeast  Level FlightAware Approximate
18:19 41.8935 -70.4313 139° Southeast  Level FlightAware Approximate
18:20 41.8660 -70.3996 155° Southeast  Level FlightAware Approximate
18:21 41.8331 -70.3790 155° Southeast  Level FlightAware Approximate
18:22 41.8002 -70.3584 155° Southeast  Level FlightAware Approximate
18:23 41.7672 -70.3378 155° Southeast  Level FlightAware Approximate
18:24 41.7343 -70.3173 155° Southeast  Level FlightAware Approximate
18:25 41.7026 -70.2936 151° Southeast  Level FlightAware Approximate
18:26 41.6709 -70.2698 151° Southeast  Level FlightAware Approximate
18:27 41.6667 -70.2667 151° Southeast  Level FlightAware Approximate
18:28 41.6693 -70.2804 151° Southeast  Level Estimated
18:29 41.6693 -70.2804 151° Southeast  Level Estimated
18:30 41.6693 -70.2804 151° Southeast  Level Estimated
18:31 41.6693 -70.2804 151° Southeast  Level Estimated
18:32 41.6693 -70.2804 151° Southeast  Level Estimated
18:33 41.6693 -70.2804 151° Southeast  Level Estimated